Flight Track Log - Related Links

Times and Time Zones

All times are in EDT time to prevent confusion due to time zone crossing. See the GJS3710 flight status page for this flight to view local times or setup timezone preferences in your user account.

Time Position Orientation Groundspeed Altitude Reporting Facility
EDT Latitude Longitude Course Direction KTS MPH feet Rate Location/Type
Sat 12:12:21 AM 41.9833 -87.8000 86° East 201 231 3,300  Level Chicago TRACON
Sat 12:14:34 AM 42.0086 -87.6128 80° East 261 300 8,600 2,487 Climbing Chicago Center
Sat 12:15:00 AM 42.1964 -87.2609 66° East  Level FlightAware Approximate
Sat 12:15:34 AM 42.0556 -87.5217 55° Northeast 294 338 11,300  Level Chicago Center
Sat 12:16:00 AM 42.2404 -87.1289 66° East  Level FlightAware Approximate
Sat 12:16:36 AM 42.1006 -87.4286 57° Northeast 295 339 13,800  Level Chicago Center
Sat 12:17:00 AM 42.2671 -86.9916 86° East  Level FlightAware Approximate
Sat 12:17:36 AM 42.1492 -87.3319 56° Northeast 309 356 16,100  Level Chicago Center
Sat 12:18:37 AM 42.1975 -87.2308 57° Northeast 319 367 18,300 1,835 Climbing Chicago Center
Sat 12:19:37 AM 42.2492 -87.1250 57° Northeast 334 384 19,800 1,240 Climbing Chicago Center
Sat 12:20:38 AM 42.2811 -86.9956 72° East 368 423 20,800 1,082 Climbing Chicago Center
Sat 12:21:39 AM 42.2875 -86.8228 87° East 384 442 22,000 984 Climbing Chicago Center
Sat 12:22:40 AM 42.2928 -86.7014 87° East 400 460 22,800 992 Climbing Chicago Center
Sat 12:23:40 AM 42.3006 -86.5131 87° East 416 479 24,000 1,091 Climbing Chicago Center
Sat 12:24:41 AM 42.3064 -86.3542 87° East 424 488 25,000 934 Climbing Chicago Center
Sat 12:25:42 AM 42.2856 -86.2206 102° East 425 489 25,900 942 Climbing Chicago Center
Sat 12:26:42 AM 42.2817 -86.0575 92° East 436 502 26,900 1,041 Climbing Chicago Center
Sat 12:27:43 AM 42.2858 -85.8747 88° East 438 504 28,000 1,033 Climbing Chicago Center
Sat 12:28:44 AM 42.2892 -85.7114 88° East 439 505 29,000 984 Climbing Chicago Center
Sat 12:29:45 AM 42.2925 -85.5472 88° East 440 506 30,000 992 Climbing Chicago Center
Sat 12:30:45 AM 42.2956 -85.3831 89° East 440 506 31,000 1,120 Climbing Chicago Center
Sat 12:31:00 AM 42.2997 -85.3311 84° East 440 506 31,400 1,120 Climbing Cleveland Center
Sat 12:32:00 AM 42.3022 -85.1656 89° East 440 506 32,400 1,000 Climbing Cleveland Center
Sat 12:33:00 AM 42.3064 -85.0058 88° East 435 501 33,400 1,008 Climbing Cleveland Center
Sat 12:33:59 AM 42.3064 -84.8400 90° East 435 501 34,400 1,008 Climbing Cleveland Center
Sat 12:34:59 AM 42.3100 -84.6803 88° East 427 491 35,400 950 Climbing Cleveland Center
Sat 12:35:59 AM 42.3092 -84.5256 90° East 422 486 36,300 793 Climbing Cleveland Center
Sat 12:37:00 AM 42.3125 -84.3686 88° East 417 480 37,000 350 Climbing Cleveland Center
Sat 12:37:59 AM 42.3156 -84.2058 88° East 422 486 37,000  Level Cleveland Center
Sat 12:38:59 AM 42.3331 -84.0439 82° East 427 491 37,000  Level Cleveland Center
Sat 12:39:59 AM 42.3486 -83.8733 83° East 438 504 37,000  Level Cleveland Center
Sat 12:40:59 AM 42.3656 -83.7083 82° East 444 511 37,000  Level Cleveland Center
Sat 12:41:59 AM 42.3767 -83.5317 85° East 450 518 37,000  Level Cleveland Center
Sat 12:42:59 AM 42.3933 -83.3611 82° East 455 524 37,000  Level Cleveland Center
Sat 12:43:59 AM 42.4056 -83.1928 84° East 455 524 37,000  Level Cleveland Center
Sat 12:44:59 AM 42.4175 -83.0272 84° East 455 524 37,000  Level Cleveland Center
Sat 12:45:59 AM 42.4314 -82.8647 83° East 443 510 37,000  Level Cleveland Center
Sat 12:46:59 AM 42.4428 -82.7019 85° East 438 504 37,000  Level Cleveland Center
Sat 12:47:59 AM 42.4539 -82.5417 85° East 438 504 37,000  Level Cleveland Center
Sat 12:48:59 AM 42.4650 -82.3789 85° East 433 498 37,000  Level Cleveland Center
Sat 12:49:59 AM 42.4758 -82.2131 85° East 433 498 37,000  Level Cleveland Center
Sat 12:50:59 AM 42.4883 -82.0417 84° East 445 512 37,000  Level Cleveland Center
Sat 12:51:59 AM 42.5008 -81.8703 84° East 456 525 37,000  Level Cleveland Center
Sat 12:52:59 AM 42.5131 -81.6986 84° East 461 531 37,000  Level Cleveland Center
Sat 12:53:59 AM 42.5231 -81.5242 85° East 461 531 37,000  Level Cleveland Center
Sat 12:54:59 AM 42.5347 -81.3467 85° East 461 531 37,000  Level Cleveland Center
Sat 12:55:59 AM 42.5461 -81.1750 85° East 461 531 37,000  Level Cleveland Center
Sat 12:56:59 AM 42.5575 -81.0003 85° East 468 539 37,000  Level Cleveland Center
Sat 12:57:59 AM 42.5664 -80.8228 86° East 462 532 37,000  Level Cleveland Center
Sat 12:58:59 AM 42.5769 -80.6394 85° East 469 540 37,000  Level Cleveland Center
Sat 12:59:59 AM 42.5831 -80.4844 87° East 469 540 37,000  Level Cleveland Center
Sat 01:00:59 AM 42.5953 -80.3039 85° East 480 552 37,000  Level Cleveland Center
Sat 01:01:59 AM 42.6053 -80.1206 86° East 480 552 37,000  Level Cleveland Center
Sat 01:02:59 AM 42.6147 -79.9286 86° East 475 547 37,000  Level Cleveland Center
Sat 01:03:59 AM 42.6239 -79.7481 86° East 475 547 37,000  Level Cleveland Center
Sat 01:04:59 AM 42.6331 -79.5728 86° East 475 547 37,000  Level Cleveland Center
Sat 01:05:59 AM 42.6417 -79.4006 86° East 469 540 37,000  Level Cleveland Center
Sat 01:06:59 AM 42.6483 -79.2311 87° East 458 527 37,000  Level Cleveland Center
Sat 01:07:59 AM 42.6544 -79.0617 87° East 453 521 37,000  Level Cleveland Center
Sat 01:08:59 AM 42.6606 -78.8919 87° East 448 516 37,000  Level Cleveland Center
Sat 01:09:59 AM 42.6683 -78.7253 86° East 442 509 37,000  Level Cleveland Center
Sat 01:11:00 AM 42.6739 -78.5583 87° East 442 509 37,000  Level Cleveland Center
Sat 01:11:59 AM 42.6792 -78.3889 88° East 442 509 37,000  Level Cleveland Center
Sat 01:12:59 AM 42.6861 -78.2219 87° East 442 509 37,000  Level Cleveland Center
Sat 01:14:00 AM 42.6911 -78.0550 88° East 442 509 37,000 -400 Level Cleveland Center
Sat 01:14:59 AM 42.6975 -77.8822 87° East 442 509 36,200 -1,008 Descending Cleveland Center
Sat 01:15:59 AM 42.7006 -77.7467 88° East 442 509 35,000 -1,550 Descending Cleveland Center
Sat 01:16:59 AM 42.7075 -77.5314 87° East 448 516 33,100 -1,556 Descending Cleveland Center
Sat 01:19:08 AM 42.7139 -77.1883 88° East 456 525 30,100 -1,302 Descending Boston Center
Sat 01:20:08 AM 42.7186 -77.0219 88° East 451 519 29,000 -550 Descending Boston Center
Sat 01:21:08 AM 42.7231 -76.8553 88° East 440 506 29,000  Level Boston Center
Sat 01:22:08 AM 42.7253 -76.6914 89° East 440 506 29,000  Level Boston Center
Sat 01:23:08 AM 42.7292 -76.5278 88° East 440 506 29,000  Level Boston Center
Sat 01:24:08 AM 42.7331 -76.3583 88° East 440 506 29,000  Level Boston Center
Sat 01:25:08 AM 42.7344 -76.1917 89° East 440 506 29,000 -250 Level Boston Center
Sat 01:26:08 AM 42.7397 -76.0278 87° East 440 506 28,500 -1,300 Descending Boston Center
Sat 01:27:08 AM 42.7408 -75.8556 89° East 440 506 26,400 -2,000 Descending Boston Center
Sat 01:28:08 AM 42.7414 -75.6969 90° East 435 501 24,500 -1,950 Descending Boston Center
Sat 01:29:08 AM 42.7436 -75.5444 89° East 417 480 22,500 -2,000 Descending Boston Center
Sat 01:30:08 AM 42.7453 -75.4061 89° East 390 449 20,500 -2,000 Descending Boston Center
Sat 01:31:08 AM 42.7464 -75.2731 89° East 365 420 18,500 -1,800 Descending Boston Center
Sat 01:32:08 AM 42.7478 -75.1403 89° East 353 406 16,900 -1,977 Descending Boston Center
Sat 01:32:36 AM 42.7472 -75.0667 91° East 342 394 15,600 -2,000 Descending Boston Center
Sat 01:33:08 AM 42.7486 -75.0158 88° East 341 392 14,900 -1,970 Descending Boston Center
Sat 01:33:43 AM 42.7483 -74.9311 90° East 326 375 13,400 -2,000 Descending Boston Center
Sat 01:34:08 AM 42.7492 -74.8944 88° East 329 379 12,900 -2,000 Descending Boston Center
Sat 01:34:43 AM 42.7486 -74.8122 90° East 318 366 11,400 -1,800 Descending Boston Center
Sat 01:35:08 AM 42.7497 -74.7586 88° East 324 373 11,100 -393 Descending Boston Center
Sat 01:35:44 AM 42.7492 -74.6936 91° East 320 368 11,000 -100 Descending Boston Center
Sat 01:36:08 AM 42.7481 -74.6369 92° East 324 373 11,000  Level Boston Center
Sat 01:36:45 AM 42.7497 -74.5522 88° East 342 394 11,000  Level Boston Center
Sat 01:37:08 AM 42.7483 -74.5069 92° East 331 381 11,000  Level Boston Center
Sat 01:37:45 AM 42.7581 -74.4336 80° East 303 349 11,000 -700 Level Boston Center
Sat 01:38:08 AM 42.7650 -74.3972 75° East 309 356 10,300 -2,361 Descending Boston Center
Sat 01:38:46 AM 42.7744 -74.3325 79° East 266 306 8,600 -2,400 Descending Boston Center
Sat 01:39:08 AM 42.7811 -74.2958 76° East 284 327 7,900 -1,900 Descending Boston Center
Sat 01:39:46 AM 42.7947 -74.2369 72° East 266 306 6,700 -1,900 Descending Boston Center
Sat 01:40:08 AM 42.7994 -74.2003 80° East 265 305 6,000 -1,967 Descending Boston Center
Sat 01:40:47 AM 42.8108 -74.1439 75° East 254 292 4,700 -2,000 Descending Boston Center
Sat 01:41:08 AM 42.8175 -74.1072 76° East 259 298 4,000 -1,672 Descending Boston Center
Sat 01:41:48 AM 42.8308 -74.0511 72° East 256 295 3,000 -1,000 Descending Boston Center
Sat 01:42:08 AM 42.8397 -74.0200 69° East 249 287 3,000  Level Boston Center
Sat 01:42:48 AM 42.8486 -73.9750 75° East 199 229 3,000  Level Boston Center
Sat 01:43:08 AM 42.8553 -73.9469 72° East 240 276 3,000  Level Boston Center
Sat 01:43:49 AM 42.8703 -73.9019 66° East 196 226 3,000  Level Boston Center
Sat 01:44:08 AM 42.8728 -73.8792 81° East 217 250 3,000  Level Boston Center
Sat 01:44:50 AM 42.8775 -73.8228 83° East 206 237 3,000 -200 Level Boston Center
Sat 01:45:08 AM 42.8672 -73.8139 148° Southeast 203 234 2,800 -1,100 Descending Boston Center
Sat 01:45:50 AM 42.8361 -73.8106 176° South 143 165 1,900 -700 Descending Boston Center
Sat 01:46:08 AM 42.8467 -73.7881 57° Northeast 128 147 2,100 667 Climbing Boston Center

Login

Don't have an account? Register now (free) for customized features, flight alerts, and more!